Mission Field
KLVM : now visible

Airfield :











YOU CAN JOIN US ON...

 
LOGIN :

Register | Disclaimer

   EN    FR    IT 

 









Legend :    VFR   Marginal VFR   IFR   Intensive IFR   Very Intensive IFR
Visi :
Ceiling :
>= 8 km
>= 3000ft
5 to 8 km
1000 to 3000 ft
1500m to 5 km
500 to 1000 ft
800 to 1500m
200 to 500 ft
< 800m
< 200 ft
Symbols :   Thunderstorms  Fog  Heavy snow  Heavy precipitations  Wind > 20 kt






- Airport Elevation : 4660 ft


KLVM - Mission Field

CURRENT METAR :
  • 120253Z AUTO 23025G32KT 10SM OVC065 04/M06 A2991 RMK AO2 PK WND 23032/0253 SLP140 T00391061 55002

EXPIRED METARs :
  • 120153Z AUTO 21020G30KT 10SM BKN065 04/M06 A2989 RMK AO2 PK WND 21033/0135 SLP133 T00391061
  • 120053Z AUTO 22025G30KT 10SM OVC065 05/M06 A2991 RMK AO2 PK WND 22030/0053 SLP140 T00501061

TAF KLVM
Valid from the 12 at 00:00 until the 13 at 00:00 UTC


112323Z 1200/1224 24017G28KT P6SM OVC070



MET'MAP, your aeronautical weather chart ! - Copyright ORBIFLY December 2007 - Disclaimer

ORBIFLY MET'MAP TEAM :

Programming & Development : Alexandra Zaïnal
Concept & original design : Baudouin d'Aumeries
Assistance for programming : Marc-Olivier Méhu
Technical & hardware support : Manuel Goepfert

Contact : metmap@orbifly.com




SOURCES & CREDITS :

   NOAA       Earth
Advisory